Terminal Aerodrome Forecast
Issued by NWS

Home | Current Version | Previous Version | Text Only | Print | Product List | Glossary On
Versions: 1 2 3 4 5 6 7 8 9 10 11 12 13 14 15 16 17 18
000
FTUS45 KABQ 061100
TAFLVS
TAF
KLVS 061133Z 0612/0712 19010KT P6SM SCT025
     FM061500 24015G23KT P6SM SCT050
     FM061800 24022G32KT P6SM VCSH SCT060 SCT120
     FM070200 23010KT P6SM FEW080 SCT150
     FM070800 04006KT P6SM FEW150=

USA.gov is the U.S. government's official web portal to all federal, state and local government web resources and services.